Time;durP1;ratioP1;P1;durP2;ratioP2;P2;SDS_P1;SDS_P2;PMS_P1;PMS_P2;Temp;Humidity;BMP_temperature;BMP_pressure;BME280_temperature;BME280_humidity;BME280_pressure;Samples;Min_cycle;Max_cycle;Signal;HPM_P1;HPM_P2
2021/03/11 00:01:13;;;;;;;6.65;5.95;;;;;;;9.80;43.12;100646.79;1766339;81;21215;-67
2021/03/11 00:03:41;;;;;;;8.20;6.15;;;;;;;9.80;43.11;100652.09;1747647;81;21171;-67
2021/03/11 00:06:09;;;;;;;9.25;6.35;;;;;;;9.79;43.11;100653.06;1740207;81;21129;-68
2021/03/11 00:08:36;;;;;;;7.47;5.58;;;;;;;9.78;43.08;100652.23;1755597;81;21123;-68
2021/03/11 00:11:05;;;;;;;8.85;6.58;;;;;;;9.78;43.08;100650.91;1740115;82;21386;-67
2021/03/11 00:13:33;;;;;;;9.55;6.50;;;;;;;9.77;43.09;100646.59;1735987;81;21203;-67
2021/03/11 00:16:01;;;;;;;8.55;6.40;;;;;;;9.75;43.08;100642.38;1737958;82;21171;-67
2021/03/11 00:18:28;;;;;;;8.65;6.12;;;;;;;9.76;43.06;100646.72;1752250;81;21135;-67
2021/03/11 00:20:57;;;;;;;8.45;5.85;;;;;;;9.75;43.09;100645.03;1736508;81;21174;-68
2021/03/11 00:23:26;;;;;;;7.83;6.22;;;;;;;9.73;43.09;100639.03;1744902;81;21346;-68
2021/03/11 00:25:53;;;;;;;9.13;6.45;;;;;;;9.73;43.09;100637.70;1752232;81;21169;-67
2021/03/11 00:28:21;;;;;;;9.30;7.05;;;;;;;9.72;43.08;100636.87;1746254;81;22085;-67
2021/03/11 00:30:49;;;;;;;9.30;7.33;;;;;;;9.72;43.08;100637.37;1743227;81;21246;-67
2021/03/11 00:33:17;;;;;;;8.68;6.28;;;;;;;9.71;43.08;100633.03;1747841;81;21108;-67
2021/03/11 00:35:45;;;;;;;8.90;6.25;;;;;;;9.69;43.07;100629.69;1753802;81;21205;-67
2021/03/11 00:38:15;;;;;;;9.03;6.12;;;;;;;9.68;43.10;100636.81;1735164;81;21199;-68
2021/03/11 00:40:42;;;;;;;7.67;6.10;;;;;;;9.67;43.11;100632.97;1744618;80;22226;-66
2021/03/11 00:43:12;;;;;;;8.10;5.90;;;;;;;9.67;43.09;100635.12;1748221;81;21127;-67
2021/03/11 00:45:41;;;;;;;8.53;5.83;;;;;;;9.65;43.11;100640.56;1743672;81;21167;-66
2021/03/11 00:48:09;;;;;;;9.53;6.62;;;;;;;9.65;43.08;100639.73;1706859;82;22123;-68
2021/03/11 00:50:37;;;;;;;7.30;5.78;;;;;;;9.64;43.09;100634.92;1734930;82;21502;-69
2021/03/11 00:53:05;;;;;;;8.18;6.53;;;;;;;9.63;43.09;100630.58;1757856;81;21191;-67
2021/03/11 00:55:34;;;;;;;8.65;6.37;;;;;;;9.62;43.09;100625.44;1727172;82;21428;-68
2021/03/11 00:58:02;;;;;;;8.20;5.75;;;;;;;9.52;43.08;100607.34;1749184;81;21167;-66
2021/03/11 01:00:30;;;;;;;9.10;6.58;;;;;;;9.60;43.10;100623.39;1723064;82;22471;-66
2021/03/11 01:03:07;;;;;;;10.25;7.47;;;;;;;9.63;43.10;100610.69;1811013;78;28171;-66
2021/03/11 01:05:46;;;;;;;10.00;6.85;;;;;;;9.59;43.10;100615.09;1803761;78;21138;-67
2021/03/11 01:08:23;;;;;;;7.08;5.95;;;;;;;9.60;43.13;100604.35;1794396;78;28590;-66
2021/03/11 01:10:51;;;;;;;8.65;7.08;;;;;;;9.57;43.12;100605.12;1781196;78;21159;-67
2021/03/11 01:13:19;;;;;;;10.10;6.55;;;;;;;9.56;43.12;100602.10;1780042;79;22128;-66
2021/03/11 01:15:47;;;;;;;8.05;6.22;;;;;;;9.55;43.14;100605.75;1757856;80;21143;-67
2021/03/11 01:18:15;;;;;;;7.97;6.67;;;;;;;9.54;43.13;100599.61;1780248;79;21218;-67
2021/03/11 01:20:43;;;;;;;9.30;6.92;;;;;;;9.54;43.14;100603.59;1753987;80;21179;-67
2021/03/11 01:23:11;;;;;;;8.15;6.72;;;;;;;9.53;43.14;100599.25;1794905;78;21584;-67
2021/03/11 01:25:38;;;;;;;10.88;7.50;;;;;;;9.51;43.16;100602.53;1778953;80;22034;-67
2021/03/11 01:28:06;;;;;;;8.60;7.05;;;;;;;9.52;43.14;100596.27;1754561;80;21186;-68
2021/03/11 01:30:35;;;;;;;9.30;6.78;;;;;;;9.51;43.14;100598.55;1788041;79;21183;-67
2021/03/11 01:33:04;;;;;;;9.33;6.90;;;;;;;9.52;43.15;100602.04;1781897;79;21117;-67
2021/03/11 01:35:34;;;;;;;9.60;7.53;;;;;;;9.50;43.14;100596.86;1791722;78;21140;-67
2021/03/11 01:38:02;;;;;;;9.75;7.53;;;;;;;9.48;43.14;100597.99;1760435;80;21190;-67
2021/03/11 01:40:30;;;;;;;9.20;7.47;;;;;;;9.48;43.16;100601.47;1757345;80;21663;-66
2021/03/11 01:42:57;;;;;;;10.23;7.40;;;;;;;9.48;43.17;100601.97;1756365;80;21150;-66
2021/03/11 01:45:25;;;;;;;11.30;8.83;;;;;;;9.46;43.18;100602.11;1771277;78;21107;-66
2021/03/11 01:47:53;;;;;;;9.63;7.62;;;;;;;9.46;43.18;100604.76;1761727;80;21389;-67
2021/03/11 01:50:20;;;;;;;10.23;8.23;;;;;;;9.44;43.17;100606.25;1769725;79;21203;-67
2021/03/11 01:52:49;;;;;;;11.70;8.90;;;;;;;9.43;43.19;100610.36;1756704;80;21210;-66
2021/03/11 01:55:18;;;;;;;12.70;9.18;;;;;;;9.43;43.21;100613.02;1748598;80;21175;-67
2021/03/11 01:57:47;;;;;;;11.38;9.60;;;;;;;9.41;43.20;100608.34;1782696;80;21179;-67
2021/03/11 02:00:18;;;;;;;13.15;9.13;;;;;;;9.40;43.21;100611.45;1793173;78;21198;-67
2021/03/11 02:02:45;;;;;;;12.80;9.20;;;;;;;9.39;43.24;100611.62;1772171;78;21371;-67
2021/03/11 02:05:16;;;;;;;11.53;9.40;;;;;;;9.38;43.23;100611.25;1770409;79;21166;-68
2021/03/11 02:07:44;;;;;;;11.85;9.78;;;;;;;9.38;43.24;100613.91;1794396;78;21155;-68
2021/03/11 02:10:19;;;;;;;12.25;9.35;;;;;;;9.36;43.24;100611.88;1779079;80;21188;-67
2021/03/11 02:13:11;;;;;;;12.28;10.20;;;;;;;9.36;43.26;100619.84;1755968;80;21186;-68
2021/03/11 02:15:49;;;;;;;14.35;9.38;;;;;;;9.34;43.26;100614.67;1757816;80;21165;-66
2021/03/11 02:18:28;;;;;;;12.33;10.32;;;;;;;9.31;43.29;100621.59;1785694;78;21190;-68
2021/03/11 02:21:14;;;;;;;12.90;10.95;;;;;;;9.30;43.30;100618.58;1760071;80;21174;-67
2021/03/11 02:24:19;;;;;;;13.80;10.68;;;;;;;9.29;43.32;100616.05;1777667;79;21369;-66
2021/03/11 02:27:01;;;;;;;15.68;10.60;;;;;;;9.27;43.33;100619.34;1780066;79;21174;-67
2021/03/11 02:29:39;;;;;;;11.88;9.75;;;;;;;9.24;43.35;100626.59;1786956;79;21351;-66
2021/03/11 02:32:10;;;;;;;14.63;10.65;;;;;;;9.24;43.40;100629.74;1776023;80;21195;-68
2021/03/11 02:34:49;;;;;;;12.88;10.15;;;;;;;9.23;43.39;100628.05;1784546;79;21202;-66
2021/03/11 02:37:46;;;;;;;12.88;10.60;;;;;;;9.23;43.41;100628.91;1779344;80;21115;-67
2021/03/11 02:40:19;;;;;;;14.98;11.05;;;;;;;9.22;43.41;100629.04;1784113;80;21602;-67
2021/03/11 02:42:49;;;;;;;15.20;11.70;;;;;;;9.20;43.40;100633.15;1785177;79;21137;-67
2021/03/11 02:45:20;;;;;;;14.50;11.43;;;;;;;9.20;43.40;100630.50;1772662;79;21234;-67
2021/03/11 02:47:48;;;;;;;14.58;11.10;;;;;;;9.20;43.41;100625.69;1765168;80;21158;-67
2021/03/11 02:50:16;;;;;;;16.82;11.70;;;;;;;9.19;43.39;100630.16;1765038;79;21166;-66
2021/03/11 02:52:45;;;;;;;17.77;13.18;;;;;;;9.19;43.41;100629.30;1731022;81;21150;-67
2021/03/11 02:55:15;;;;;;;16.97;12.30;;;;;;;9.18;43.39;100632.45;1757915;79;21689;-66
2021/03/11 02:57:42;;;;;;;16.77;12.07;;;;;;;9.17;43.40;100636.06;1764712;79;21131;-67
2021/03/11 03:00:12;;;;;;;15.98;12.15;;;;;;;9.17;43.42;100629.94;1770889;80;21167;-66
2021/03/11 03:02:41;;;;;;;15.98;11.83;;;;;;;9.17;43.42;100633.41;1753229;80;21167;-66
2021/03/11 03:05:12;;;;;;;17.25;12.18;;;;;;;9.17;43.43;100633.91;1787212;80;21147;-66
2021/03/11 03:07:43;;;;;;;20.12;13.93;;;;;;;9.16;43.40;100637.05;1776034;79;21371;-66
2021/03/11 03:10:11;;;;;;;17.32;13.08;;;;;;;9.15;43.41;100628.73;1777450;80;21095;-67
2021/03/11 03:12:39;;;;;;;16.25;12.80;;;;;;;9.15;43.40;100623.44;1773384;80;21377;-66
2021/03/11 03:15:10;;;;;;;17.90;12.98;;;;;;;9.15;43.41;100625.25;1774868;80;21179;-66
2021/03/11 03:17:38;;;;;;;16.65;13.53;;;;;;;9.15;43.41;100619.95;1774643;80;21179;-67
2021/03/11 03:20:08;;;;;;;18.27;13.98;;;;;;;9.13;43.40;100620.08;1774865;80;21243;-67
2021/03/11 03:22:36;;;;;;;17.65;12.98;;;;;;;9.14;43.42;100623.59;1777821;80;21240;-66
2021/03/11 03:25:12;;;;;;;16.75;12.78;;;;;;;9.13;43.42;100621.91;1777741;80;21189;-66
2021/03/11 03:27:40;;;;;;;18.17;13.45;;;;;;;9.12;43.45;100617.09;1771635;80;21162;-67
2021/03/11 03:30:13;;;;;;;17.57;13.15;;;;;;;9.10;43.44;100613.75;1773486;80;21471;-67
2021/03/11 03:32:41;;;;;;;21.62;15.15;;;;;;;9.10;43.44;100614.21;1778349;80;21361;-67
2021/03/11 03:35:10;;;;;;;18.75;13.85;;;;;;;9.10;43.48;100619.52;1753392;81;21223;-65
2021/03/11 03:37:38;;;;;;;21.60;14.03;;;;;;;9.09;43.48;100622.66;1760453;80;21611;-65
2021/03/11 03:40:12;;;;;;;17.30;12.98;;;;;;;9.09;43.46;100623.16;1741186;81;21190;-67
2021/03/11 03:43:02;;;;;;;19.15;14.40;;;;;;;9.08;43.48;100625.45;1769550;80;21138;-66
2021/03/11 03:45:34;;;;;;;16.60;12.50;;;;;;;9.07;43.46;100623.29;1762674;80;21360;-67
2021/03/11 03:48:03;;;;;;;18.10;12.55;;;;;;;9.05;43.50;100625.23;1772225;80;21128;-67
2021/03/11 03:50:31;;;;;;;17.73;13.58;;;;;;;9.03;43.52;100629.34;1753955;80;21159;-67
2021/03/11 03:52:58;;;;;;;20.15;13.68;;;;;;;9.03;43.54;100634.64;1767645;80;21128;-66
2021/03/11 03:55:27;;;;;;;20.27;14.10;;;;;;;9.02;43.53;100638.75;1763674;80;21395;-66
2021/03/11 03:57:55;;;;;;;22.00;14.53;;;;;;;9.02;43.55;100630.80;1754270;80;22290;-66
2021/03/11 04:00:24;;;;;;;17.45;13.45;;;;;;;9.02;43.54;100626.83;1760685;80;21166;-66
2021/03/11 04:02:55;;;;;;;20.80;14.50;;;;;;;9.00;43.54;100624.34;1736089;81;21178;-66
2021/03/11 04:05:23;;;;;;;18.20;12.90;;;;;;;9.01;43.53;100631.79;1771067;80;21154;-67
2021/03/11 04:07:52;;;;;;;16.90;12.95;;;;;;;9.00;43.54;100631.42;1756595;80;21150;-67
2021/03/11 04:10:19;;;;;;;21.15;14.55;;;;;;;8.99;43.54;100631.92;1771647;80;22080;-67
2021/03/11 04:12:47;;;;;;;19.45;14.93;;;;;;;8.98;43.57;100635.56;1787472;78;21186;-67
2021/03/11 04:15:14;;;;;;;18.92;13.78;;;;;;;8.97;43.56;100636.52;1781061;80;21101;-67
2021/03/11 04:17:42;;;;;;;21.45;14.25;;;;;;;8.97;43.56;100643.15;1774972;78;21169;-66
2021/03/11 04:20:10;;;;;;;19.37;13.95;;;;;;;8.94;43.55;100639.43;1755067;80;21159;-66
2021/03/11 04:22:39;;;;;;;18.98;14.00;;;;;;;8.96;43.56;100642.81;1786987;78;21195;-67
2021/03/11 04:25:08;;;;;;;18.20;13.48;;;;;;;8.95;43.55;100642.94;1784647;79;21139;-68
2021/03/11 04:27:36;;;;;;;19.37;14.35;;;;;;;8.95;43.57;100641.61;1794211;78;21588;-67
2021/03/11 04:30:06;;;;;;;18.42;13.55;;;;;;;8.93;43.58;100637.77;1797304;78;21226;-66
2021/03/11 04:32:34;;;;;;;18.37;13.78;;;;;;;8.93;43.58;100636.45;1787246;79;21170;-66
2021/03/11 04:35:06;;;;;;;19.10;14.07;;;;;;;8.93;43.59;100634.29;1787790;79;21323;-67
2021/03/11 04:37:34;;;;;;;18.10;13.08;;;;;;;8.93;43.58;100638.27;1785243;79;21529;-66
2021/03/11 04:40:02;;;;;;;17.70;12.58;;;;;;;8.92;43.59;100639.22;1740747;80;21154;-67
2021/03/11 04:42:30;;;;;;;17.20;12.95;;;;;;;8.91;43.60;100637.07;1769334;79;21162;-67
2021/03/11 04:44:57;;;;;;;18.23;12.58;;;;;;;8.91;43.60;100645.02;1769566;79;21154;-66
2021/03/11 04:47:24;;;;;;;18.05;13.35;;;;;;;8.91;43.58;100642.86;1770059;79;21455;-66
2021/03/11 04:49:52;;;;;;;17.87;12.95;;;;;;;8.92;43.55;100649.33;1760060;79;21186;-66
2021/03/11 04:52:20;;;;;;;16.95;12.28;;;;;;;8.92;43.58;100643.20;1767591;79;21166;-66
2021/03/11 04:54:49;;;;;;;15.38;12.10;;;;;;;8.90;43.56;100644.66;1748386;79;21142;-66
2021/03/11 04:57:16;;;;;;;15.85;12.30;;;;;;;8.93;43.55;100650.19;1753998;79;21160;-65
2021/03/11 04:59:44;;;;;;;14.43;11.35;;;;;;;8.93;43.54;100656.32;1756511;79;21382;-66
2021/03/11 05:02:12;;;;;;;17.48;12.30;;;;;;;8.94;43.55;100650.52;1760392;79;21138;-66
2021/03/11 05:04:42;;;;;;;14.93;11.63;;;;;;;8.94;43.54;100654.00;1768882;79;21157;-66
2021/03/11 05:07:09;;;;;;;16.27;11.53;;;;;;;8.96;43.52;100653.87;1768165;79;21154;-65
2021/03/11 05:09:37;;;;;;;18.52;12.05;;;;;;;8.96;43.52;100649.90;1729793;81;21232;-66
2021/03/11 05:12:08;;;;;;;15.13;11.10;;;;;;;8.95;43.50;100653.55;1745020;81;21351;-66
2021/03/11 05:14:36;;;;;;;14.00;11.22;;;;;;;8.98;43.49;100651.93;1733551;81;21191;-66
2021/03/11 05:17:03;;;;;;;13.35;10.60;;;;;;;8.99;43.48;100650.97;1734666;81;21378;-65
2021/03/11 05:19:33;;;;;;;14.58;10.78;;;;;;;8.99;43.47;100650.97;1744093;81;21126;-65
2021/03/11 05:22:00;;;;;;;12.93;10.35;;;;;;;9.00;43.44;100649.98;1750195;81;21146;-67
2021/03/11 05:24:29;;;;;;;14.58;10.63;;;;;;;9.02;43.43;100652.00;1735770;81;21229;-67
2021/03/11 05:26:58;;;;;;;14.33;10.90;;;;;;;9.03;43.42;100652.38;1719626;81;21126;-66
2021/03/11 05:29:25;;;;;;;16.42;11.40;;;;;;;9.04;43.40;100658.04;1732521;81;21108;-67
2021/03/11 05:31:53;;;;;;;13.50;9.90;;;;;;;9.05;43.40;100662.34;1734133;81;21174;-66
2021/03/11 05:34:20;;;;;;;13.80;9.98;;;;;;;9.07;43.38;100667.03;1737239;81;21170;-68
2021/03/11 05:36:49;;;;;;;15.20;10.15;;;;;;;9.10;43.35;100669.88;1737338;81;21203;-67
2021/03/11 05:39:17;;;;;;;13.32;9.15;;;;;;;9.10;43.33;100677.37;1739937;81;21235;-67
2021/03/11 05:41:44;;;;;;;12.82;9.68;;;;;;;9.13;43.31;100676.25;1739355;81;21114;-67
2021/03/11 05:44:12;;;;;;;13.22;9.05;;;;;;;9.12;43.26;100675.42;1748287;81;21162;-67
2021/03/11 05:46:39;;;;;;;13.08;10.03;;;;;;;9.15;43.25;100679.11;1744279;81;21187;-66
2021/03/11 05:49:08;;;;;;;12.55;9.55;;;;;;;9.15;43.24;100673.80;1737858;81;22437;-66
2021/03/11 05:51:37;;;;;;;11.85;9.60;;;;;;;9.17;43.21;100677.16;1745830;81;21225;-65
2021/03/11 05:54:06;;;;;;;10.43;8.20;;;;;;;9.18;43.17;100674.04;1736395;81;21162;-65
2021/03/11 05:56:35;;;;;;;14.28;9.65;;;;;;;9.19;43.15;100673.91;1735367;81;21211;-65
2021/03/11 05:59:03;;;;;;;12.60;9.28;;;;;;;9.22;43.13;100674.11;1731779;81;21397;-67
2021/03/11 06:01:32;;;;;;;11.65;9.23;;;;;;;9.24;43.09;100678.30;1720092;81;21222;-66
2021/03/11 06:04:00;;;;;;;11.63;8.73;;;;;;;9.25;43.08;100677.80;1754651;81;21164;-66
2021/03/11 06:06:30;;;;;;;10.40;7.92;;;;;;;9.28;43.07;100684.66;1756818;81;21156;-66
2021/03/11 06:08:58;;;;;;;11.85;8.45;;;;;;;9.30;43.04;100684.04;1723863;81;21192;-65
2021/03/11 06:11:26;;;;;;;10.90;8.35;;;;;;;9.33;42.99;100687.72;1750413;80;21631;-68
2021/03/11 06:13:53;;;;;;;10.23;8.33;;;;;;;9.35;42.96;100687.95;1776366;78;21410;-66
2021/03/11 06:16:26;;;;;;;10.60;8.25;;;;;;;9.38;42.93;100685.52;1775198;78;21193;-67
2021/03/11 06:18:53;;;;;;;12.10;7.97;;;;;;;9.40;42.91;100690.19;1778268;79;21188;-65
2021/03/11 06:21:20;;;;;;;10.50;8.48;;;;;;;9.43;42.86;100688.59;1776040;80;21160;-66
2021/03/11 06:23:48;;;;;;;11.93;8.18;;;;;;;9.44;42.83;100696.42;1770102;80;21170;-66
2021/03/11 06:26:16;;;;;;;9.85;8.08;;;;;;;9.46;42.78;100689.62;1759845;80;22205;-67
2021/03/11 06:28:49;;;;;;;9.35;7.62;;;;;;;9.49;42.76;100703.95;1786178;79;21187;-65
2021/03/11 06:31:29;;;;;;;11.50;8.30;;;;;;;9.52;42.73;100707.67;1785470;79;21102;-67
2021/03/11 06:33:58;;;;;;;10.08;7.20;;;;;;;9.54;42.70;100716.33;1783695;80;21460;-67
2021/03/11 06:36:28;;;;;;;9.75;7.35;;;;;;;9.57;42.68;100721.34;1807937;78;21186;-66
2021/03/11 06:38:58;;;;;;;11.10;7.95;;;;;;;9.59;42.63;100707.95;1787866;80;21361;-67
2021/03/11 06:41:44;;;;;;;10.15;8.33;;;;;;;9.61;42.59;100704.17;1779708;78;21179;-68
2021/03/11 06:44:11;;;;;;;11.18;8.35;;;;;;;9.64;42.56;100709.21;1786626;78;21179;-67
2021/03/11 06:46:40;;;;;;;11.60;8.08;;;;;;;9.65;42.51;100706.06;1778403;80;21121;-66
2021/03/11 06:49:09;;;;;;;10.63;7.78;;;;;;;9.68;42.48;100712.43;1760577;80;21167;-67
2021/03/11 06:51:38;;;;;;;11.33;7.90;;;;;;;9.71;42.45;100710.81;1786595;79;21364;-66
2021/03/11 06:54:08;;;;;;;10.70;7.75;;;;;;;9.74;42.41;100717.18;1788908;78;21171;-66
2021/03/11 06:56:42;;;;;;;10.88;7.97;;;;;;;9.76;42.37;100713.89;1775819;79;21165;-66
2021/03/11 06:59:09;;;;;;;12.23;7.90;;;;;;;9.79;42.32;100717.61;1777060;79;21737;-66
2021/03/11 07:01:49;;;;;;;11.70;7.42;;;;;;;9.81;42.27;100717.45;1740693;80;21478;-65
2021/03/11 07:04:23;;;;;;;10.28;7.62;;;;;;;9.83;42.25;100720.33;1761245;78;22367;-65
2021/03/11 07:06:50;;;;;;;8.18;6.65;;;;;;;9.85;42.23;100720.20;1757474;80;21155;-64
2021/03/11 07:09:18;;;;;;;10.82;7.50;;;;;;;9.87;42.20;100713.40;1759181;80;21206;-65
2021/03/11 07:14:53;;;;;;;9.60;6.97;;;;;;;9.97;42.14;100712.44;1750490;79;28324;-66
2021/03/11 07:17:24;;;;;;;11.78;7.33;;;;;;;9.96;42.10;100713.89;1719885;82;21183;-66
2021/03/11 07:20:15;;;;;;;10.03;7.10;;;;;;;9.97;42.05;100709.78;1716557;81;22289;-65
2021/03/11 07:23:10;;;;;;;8.55;7.30;;;;;;;10.00;42.03;100722.75;1730695;82;21618;-65
2021/03/11 07:25:44;;;;;;;11.73;7.67;;;;;;;10.02;41.98;100720.83;1736475;81;21218;-64
2021/03/11 07:28:26;;;;;;;10.45;7.37;;;;;;;10.03;41.98;100725.14;1736533;81;21190;-67
2021/03/11 07:31:00;;;;;;;12.05;7.62;;;;;;;10.06;41.97;100722.68;1734250;81;21643;-65
2021/03/11 07:33:29;;;;;;;11.10;7.87;;;;;;;10.08;41.92;100727.86;1736617;82;21643;-65
2021/03/11 07:35:59;;;;;;;8.65;6.87;;;;;;;10.10;41.90;100735.19;1732259;81;21183;-65
2021/03/11 07:38:29;;;;;;;8.93;7.17;;;;;;;10.12;41.86;100730.11;1736682;81;21174;-67
2021/03/11 07:40:59;;;;;;;11.80;7.28;;;;;;;10.16;41.81;100729.31;1736336;81;21182;-66
2021/03/11 07:43:28;;;;;;;10.70;7.55;;;;;;;10.18;41.74;100730.86;1736624;81;21122;-67
2021/03/11 07:45:59;;;;;;;8.68;6.90;;;;;;;10.22;41.73;100734.08;1736139;82;22285;-65
2021/03/11 07:48:26;;;;;;;9.58;7.30;;;;;;;10.26;41.70;100737.27;1734382;81;21178;-66
2021/03/11 07:50:55;;;;;;;9.58;7.42;;;;;;;10.29;41.82;100733.02;1735685;81;21186;-65
2021/03/11 07:53:27;;;;;;;9.38;6.47;;;;;;;10.31;41.85;100726.59;1708915;81;21186;-65
2021/03/11 07:55:56;;;;;;;10.95;7.45;;;;;;;10.34;41.84;100728.98;1734530;82;21187;-65
2021/03/11 07:58:25;;;;;;;10.10;7.10;;;;;;;10.38;41.77;100725.55;1732327;82;21359;-65
2021/03/11 08:00:52;;;;;;;10.55;7.72;;;;;;;10.40;41.71;100724.42;1746161;81;21150;-65
2021/03/11 08:03:23;;;;;;;10.35;7.50;;;;;;;10.43;41.66;100721.49;1728423;82;21051;-67
2021/03/11 08:05:51;;;;;;;10.53;7.00;;;;;;;10.46;41.62;100730.98;1729609;82;21142;-65
2021/03/11 08:08:29;;;;;;;10.08;7.45;;;;;;;10.49;41.53;100720.55;1736640;82;21122;-64
2021/03/11 08:11:00;;;;;;;9.15;6.80;;;;;;;10.52;41.48;100724.27;1736510;82;21205;-66
2021/03/11 08:13:35;;;;;;;;;;;;;;;10.55;41.44;100718.67;1733411;82;21627;-66
2021/03/11 08:16:17;;;;;;;7.92;6.47;;;;;;;10.58;41.40;100717.87;1731829;81;20445;-65
2021/03/11 08:18:46;;;;;;;9.78;6.83;;;;;;;10.53;41.45;100711.34;1724818;82;21191;-64
2021/03/11 08:21:37;;;;;;;9.98;7.15;;;;;;;10.56;41.42;100711.03;1734518;81;21286;-66
2021/03/11 08:24:44;;;;;;;8.50;6.15;;;;;;;10.59;41.36;100698.80;1730432;81;21397;-67
2021/03/11 08:27:36;;;;;;;10.23;6.10;;;;;;;10.61;41.34;100702.98;1735073;81;21202;-66
2021/03/11 08:30:06;;;;;;;8.98;6.53;;;;;;;10.64;41.35;100704.50;1734995;82;21152;-67
2021/03/11 08:32:50;;;;;;;9.23;7.08;;;;;;;10.66;41.31;100693.23;1736711;81;21178;-67
2021/03/11 08:35:35;;;;;;;8.38;6.37;;;;;;;10.69;41.29;100706.23;1727722;82;21661;-66
2021/03/11 08:38:26;;;;;;;9.90;6.65;;;;;;;10.74;41.29;100699.14;1726308;81;21397;-65
2021/03/11 08:41:03;;;;;;;8.88;6.33;;;;;;;10.77;41.24;100695.70;1722035;81;21190;-67
2021/03/11 08:43:41;;;;;;;8.65;6.60;;;;;;;10.80;41.21;100695.43;1727569;81;21103;-66
2021/03/11 08:46:16;;;;;;;10.08;6.42;;;;;;;10.85;41.23;100696.31;1733850;81;21424;-64
2021/03/11 08:48:50;;;;;;;7.85;6.10;;;;;;;10.90;41.22;100683.42;1735244;81;21147;-64
2021/03/11 08:51:24;;;;;;;7.58;5.67;;;;;;;10.97;41.23;100683.66;1779030;80;22367;-64
2021/03/11 08:53:54;;;;;;;7.55;5.60;;;;;;;11.02;41.26;100680.91;1775220;79;21181;-63
2021/03/11 08:56:30;;;;;;;9.50;6.05;;;;;;;11.09;41.29;100689.64;1790982;79;21166;-65
2021/03/11 08:59:10;;;;;;;9.08;6.00;;;;;;;11.16;41.31;100684.05;1780169;79;21148;-66
2021/03/11 09:01:51;;;;;;;7.50;5.62;;;;;;;11.23;41.33;100676.33;1780180;80;21673;-66
2021/03/11 09:04:29;;;;;;;6.92;5.70;;;;;;;11.33;41.25;100685.08;1781844;79;21446;-64
2021/03/11 09:07:02;;;;;;;9.23;6.30;;;;;;;11.39;41.18;100683.97;1753190;80;21182;-65
2021/03/11 09:09:45;;;;;;;7.90;5.92;;;;;;;11.47;41.20;100691.70;1769635;80;21162;-65
2021/03/11 09:12:20;;;;;;;8.08;5.12;;;;;;;11.56;41.18;100681.48;1774429;79;21162;-63
2021/03/11 09:14:52;;;;;;;;;;;;;;;11.66;41.19;100696.05;1757166;79;21171;-64
2021/03/11 09:17:29;;;;;;;6.80;5.08;;;;;;;11.72;41.20;100686.95;1745999;81;21489;-64
2021/03/11 09:20:14;;;;;;;6.95;5.20;;;;;;;11.75;41.26;100681.84;1732096;81;21217;-65
2021/03/11 09:22:47;;;;;;;7.45;5.45;;;;;;;11.86;41.17;100685.59;1699029;82;22166;-65
2021/03/11 09:25:21;;;;;;;7.37;5.85;;;;;;;11.96;41.12;100674.39;1658718;85;21198;-64
2021/03/11 09:27:59;;;;;;;7.62;5.80;;;;;;;12.07;41.08;100680.45;1704412;82;21449;-65
2021/03/11 09:30:36;;;;;;;6.85;5.05;;;;;;;12.17;41.06;100674.55;1704421;84;21245;-66
2021/03/11 09:33:23;;;;;;;5.83;4.70;;;;;;;12.29;41.06;100671.97;1694248;82;21234;-67
2021/03/11 09:35:52;;;;;;;7.15;4.70;;;;;;;12.41;41.01;100665.05;1689633;84;21231;-66
2021/03/11 09:38:26;;;;;;;8.13;5.10;;;;;;;12.51;40.80;100669.25;1695147;82;21184;-67
2021/03/11 09:40:56;;;;;;;6.00;5.00;;;;;;;12.63;40.72;100675.14;1706549;82;21171;-66
2021/03/11 09:43:33;;;;;;;7.58;5.17;;;;;;;12.74;40.67;100673.53;1744273;80;21677;-65
2021/03/11 09:46:08;;;;;;;5.70;4.92;;;;;;;12.87;40.78;100674.44;1739430;81;21184;-65
2021/03/11 09:48:47;;;;;;;5.40;4.37;;;;;;;13.01;40.66;100679.66;1735442;80;21181;-65
2021/03/11 09:51:18;;;;;;;6.58;4.95;;;;;;;13.13;41.00;100673.52;1719711;81;21184;-67
2021/03/11 09:53:54;;;;;;;7.17;5.00;;;;;;;13.25;41.44;100678.92;1734491;80;21156;-66
2021/03/11 09:56:31;;;;;;;6.62;4.55;;;;;;;13.40;41.44;100677.80;1722494;81;21409;-64
2021/03/11 09:59:03;;;;;;;5.87;4.80;;;;;;;13.54;41.40;100677.17;1725984;82;21209;-63
2021/03/11 10:01:46;;;;;;;6.17;4.72;;;;;;;13.69;41.37;100668.50;1728760;81;21164;-64
2021/03/11 10:04:29;;;;;;;6.50;4.92;;;;;;;13.82;41.05;100668.84;1726943;82;21590;-65
2021/03/11 10:07:00;;;;;;;6.03;3.98;;;;;;;13.95;40.96;100662.50;1714269;82;21209;-65
2021/03/11 10:09:38;;;;;;;6.70;4.55;;;;;;;14.08;40.97;100662.00;1729772;80;21383;-65
2021/03/11 10:12:13;;;;;;;4.83;4.03;;;;;;;14.27;40.98;100654.09;1803923;78;28214;-64
2021/03/11 10:14:42;;;;;;;4.72;3.75;;;;;;;14.35;40.92;100671.96;1802759;79;21633;-65
2021/03/11 10:17:19;;;;;;;5.83;4.00;;;;;;;14.49;40.90;100659.76;1793676;79;21377;-66
2021/03/11 10:19:49;;;;;;;6.55;4.10;;;;;;;14.64;40.85;100660.75;1793194;79;21099;-64
2021/03/11 10:22:19;;;;;;;6.00;4.87;;;;;;;14.78;40.78;100651.68;1770490;80;21398;-65
2021/03/11 10:24:51;;;;;;;5.47;4.33;;;;;;;14.93;40.72;100651.25;1767775;80;21155;-65
2021/03/11 10:27:31;;;;;;;4.50;3.70;;;;;;;15.08;40.69;100658.87;1769616;80;21187;-66
2021/03/11 10:30:27;;;;;;;6.15;4.15;;;;;;;15.22;40.61;100659.98;1767859;80;21354;-65
2021/03/11 10:33:03;;;;;;;5.40;4.08;;;;;;;15.37;40.51;100660.05;1766191;80;21190;-62
2021/03/11 10:35:37;;;;;;;4.72;4.05;;;;;;;15.52;40.42;100642.72;1763711;80;21177;-65
2021/03/11 10:38:24;;;;;;;6.35;4.60;;;;;;;15.66;40.36;100643.78;1761535;80;21144;-65
2021/03/11 10:40:52;;;;;;;4.97;3.72;;;;;;;15.80;40.34;100636.34;1764976;80;21198;-64
2021/03/11 10:43:22;;;;;;;4.08;3.20;;;;;;;15.95;40.25;100626.16;1763471;80;21501;-64
2021/03/11 10:45:49;;;;;;;4.95;3.75;;;;;;;16.06;40.07;100625.20;1768073;80;21196;-66
2021/03/11 10:48:17;;;;;;;4.40;3.60;;;;;;;16.19;40.10;100624.59;1762826;80;21168;-66
2021/03/11 10:50:50;;;;;;;4.75;3.87;;;;;;;16.32;39.85;100623.94;1757090;81;21244;-64
2021/03/11 10:53:19;;;;;;;4.25;3.37;;;;;;;16.44;39.86;100620.31;1754483;80;21161;-65
2021/03/11 10:55:47;;;;;;;4.53;3.87;;;;;;;16.59;39.66;100622.97;1755940;81;21345;-67
2021/03/11 10:58:27;;;;;;;5.78;3.75;;;;;;;16.73;39.57;100611.89;1761214;81;21222;-66
2021/03/11 11:01:15;;;;;;;5.47;3.52;;;;;;;16.88;39.52;100613.59;1756743;81;21197;-65
2021/03/11 11:03:42;;;;;;;6.72;4.15;;;;;;;17.18;39.29;100614.84;1759361;80;21171;-65
2021/03/11 11:06:10;;;;;;;4.55;3.60;;;;;;;17.62;38.94;100610.33;1763063;80;21192;-64
2021/03/11 11:08:44;;;;;;;4.50;3.15;;;;;;;18.09;38.32;100599.44;1756303;79;21441;-63
2021/03/11 11:11:13;;;;;;;4.92;3.72;;;;;;;18.63;37.63;100604.61;1751755;79;21659;-63
2021/03/11 11:13:42;;;;;;;4.87;3.75;;;;;;;19.22;36.79;100591.91;1737477;82;21219;-63
2021/03/11 11:16:12;;;;;;;4.92;3.22;;;;;;;19.76;36.05;100597.35;1736960;82;21181;-66
2021/03/11 11:18:40;;;;;;;4.22;3.30;;;;;;;20.28;35.31;100584.02;1706477;82;21116;-65
2021/03/11 11:21:08;;;;;;;3.95;3.40;;;;;;;20.78;34.65;100580.23;1736575;81;21388;-68
2021/03/11 11:23:37;;;;;;;3.10;2.80;;;;;;;21.24;33.99;100576.44;1729740;81;21242;-65
2021/03/11 11:26:04;;;;;;;3.80;2.95;;;;;;;21.66;33.40;100570.03;1736086;82;21211;-65
2021/03/11 11:28:32;;;;;;;3.72;3.05;;;;;;;22.03;33.00;100570.10;1737380;82;21135;-64
2021/03/11 11:30:59;;;;;;;3.72;2.83;;;;;;;22.22;32.76;100561.48;1744915;81;21655;-63
2021/03/11 11:33:27;;;;;;;4.45;3.30;;;;;;;22.30;32.63;100568.50;1725154;82;21468;-66
2021/03/11 11:35:56;;;;;;;4.42;3.25;;;;;;;22.30;32.52;100560.38;1736216;82;21218;-65
2021/03/11 11:38:24;;;;;;;3.47;3.17;;;;;;;22.25;32.61;100554.81;1737672;81;21163;-66
2021/03/11 11:40:51;;;;;;;3.98;3.22;;;;;;;22.16;32.80;100557.79;1734310;81;21173;-64
2021/03/11 11:43:19;;;;;;;3.77;3.10;;;;;;;22.06;32.98;100548.52;1735503;82;21198;-66
2021/03/11 11:45:47;;;;;;;3.85;3.30;;;;;;;21.98;33.18;100553.70;1733839;82;21347;-64
2021/03/11 11:48:15;;;;;;;3.33;3.00;;;;;;;21.99;33.29;100560.78;1734863;82;21198;-68